Time;durP1;ratioP1;P1;durP2;ratioP2;P2;SDS_P1;SDS_P2;PMS_P1;PMS_P2;Temp;Humidity;BMP_temperature;BMP_pressure;BME280_temperature;BME280_humidity;BME280_pressure;Samples;Min_cycle;Max_cycle;Signal;HPM_P1;HPM_P2
2022/01/12 00:01:15;;;;;;;17.38;13.38;;;;;;;;;;5056354;28;20394;-88
2022/01/12 00:03:43;;;;;;;17.27;12.02;;;;;;;;;;5074196;28;20135;-89
2022/01/12 00:06:11;;;;;;;18.67;12.32;;;;;;;;;;5057040;28;20386;-91
2022/01/12 00:08:38;;;;;;;20.80;12.52;;;;;;;;;;5074214;28;20045;-91
2022/01/12 00:11:05;;;;;;;19.40;13.38;;;;;;;;;;5074573;28;20056;-90
2022/01/12 00:13:32;;;;;;;13.45;10.93;;;;;;;;;;5048741;28;20057;-92
2022/01/12 00:16:01;;;;;;;16.42;12.40;;;;;;;;;;5053766;28;20053;-90
2022/01/12 00:18:29;;;;;;;19.30;13.18;;;;;;;;;;5062606;28;20405;-91
2022/01/12 00:20:57;;;;;;;21.67;13.18;;;;;;;;;;5073964;28;20182;-91
2022/01/12 00:23:24;;;;;;;21.90;13.73;;;;;;;;;;5074071;28;20045;-88
2022/01/12 00:34:03;;;;;;;27.15;14.95;;;;;;;;;;5071116;28;20135;-91
2022/01/12 00:36:31;;;;;;;24.42;15.68;;;;;;;;;;5033614;28;20131;-91
2022/01/12 00:38:59;;;;;;;18.25;13.10;;;;;;;;;;5040125;28;20046;-91
2022/01/12 00:41:26;;;;;;;16.08;13.57;;;;;;;;;;5055888;28;20385;-90
2022/01/12 00:43:58;;;;;;;19.00;14.70;;;;;;;;;;5039759;28;20080;-90
2022/01/12 00:46:29;;;;;;;20.80;16.08;;;;;;;;;;5047634;28;20037;-86
2022/01/12 00:48:58;;;;;;;20.30;16.13;;;;;;;;;;5037087;28;20182;-91
2022/01/12 00:51:27;;;;;;;17.80;15.68;;;;;;;;;;5022671;28;20072;-92
2022/01/12 00:53:55;;;;;;;19.85;15.20;;;;;;;;;;5036240;28;20446;-89
2022/01/12 00:56:22;;;;;;;17.77;13.38;;;;;;;;;;5053949;28;20045;-84
2022/01/12 00:58:50;;;;;;;15.82;14.20;;;;;;;;;;5035948;28;20072;-90
2022/01/12 01:01:19;;;;;;;18.83;14.82;;;;;;;;;;5036249;28;20044;-88
2022/01/12 01:03:49;;;;;;;20.63;14.55;;;;;;;;;;5035839;28;20374;-89
2022/01/12 01:06:17;;;;;;;17.40;13.60;;;;;;;;;;5036293;28;20045;-90
2022/01/12 01:08:48;;;;;;;20.05;15.45;;;;;;;;;;5019216;28;20072;-91
2022/01/12 01:11:16;;;;;;;22.10;16.15;;;;;;;;;;5035681;28;20497;-91
2022/01/12 01:13:57;;;;;;;16.05;12.60;;;;;;;;;;5035666;28;20076;-90
2022/01/12 01:16:48;;;;;;;20.77;15.52;;;;;;;;;;5035393;28;20045;-90
2022/01/12 01:27:34;;;;;;;25.08;16.40;;;;;;;;;;5068198;28;20441;-91
2022/01/12 01:30:03;;;;;;;22.33;15.85;;;;;;;;;;5035761;28;20404;-88
2022/01/12 01:32:32;;;;;;;20.25;15.82;;;;;;;;;;5018776;28;20057;-90
2022/01/12 01:34:59;;;;;;;23.45;15.00;;;;;;;;;;5035693;28;20053;-90
2022/01/12 01:37:26;;;;;;;21.05;14.32;;;;;;;;;;5034801;28;20049;-89
2022/01/12 01:39:53;;;;;;;14.05;12.55;;;;;;;;;;5035471;28;20049;-89
2022/01/12 01:42:27;;;;;;;24.67;15.48;;;;;;;;;;5035228;28;20041;-89
2022/01/12 01:55:41;;;;;;;20.77;14.75;;;;;;;;;;5072523;28;20393;-89
2022/01/12 01:58:09;;;;;;;23.52;14.90;;;;;;;;;;5038438;28;20123;-89
2022/01/12 02:00:37;;;;;;;22.02;15.05;;;;;;;;;;5054574;28;20077;-90
2022/01/12 02:03:10;;;;;;;14.60;12.45;;;;;;;;;;5054677;28;20079;-90
2022/01/12 02:05:42;;;;;;;24.52;15.93;;;;;;;;;;5087910;28;20052;-89
2022/01/12 02:08:10;;;;;;;22.70;14.40;;;;;;;;;;5067634;28;20052;-89
2022/01/12 02:10:58;;;;;;;13.40;11.25;;;;;;;;;;5054390;28;20140;-86
2022/01/12 02:13:27;;;;;;;19.13;13.55;;;;;;;;;;5071235;28;20040;-91
2022/01/12 02:15:55;;;;;;;17.75;13.40;;;;;;;;;;5054756;28;20484;-88
2022/01/12 02:40:31;;;;;;;16.60;14.63;;;;;;;;;;5058099;28;20052;-88
2022/01/12 02:51:28;;;;;;;17.80;12.52;;;;;;;;;;5075870;28;20040;-88
2022/01/12 02:53:56;;;;;;;20.13;13.95;;;;;;;;;;5058170;28;20037;-86
2022/01/12 02:56:27;;;;;;;20.08;14.57;;;;;;;;;;5057907;28;20052;-88
2022/01/12 02:58:58;;;;;;;20.33;13.82;;;;;;;;;;5058074;28;20416;-88
2022/01/12 03:04:05;;;;;;;24.58;15.60;;;;;;;;;;5041675;28;20044;-86
2022/01/12 03:06:37;;;;;;;25.75;17.17;;;;;;;;;;5074852;28;20080;-87
2022/01/12 03:09:07;;;;;;;21.90;13.50;;;;;;;;;;5041543;28;20049;-88
2022/01/12 03:11:36;;;;;;;20.02;14.38;;;;;;;;;;5074385;28;20050;-87
2022/01/12 03:14:11;;;;;;;17.75;12.88;;;;;;;;;;5057563;28;20432;-83
2022/01/12 03:16:41;;;;;;;16.10;13.32;;;;;;;;;;5057992;28;20053;-87
2022/01/12 03:19:13;;;;;;;19.85;14.15;;;;;;;;;;5057403;28;20068;-87
2022/01/12 03:21:40;;;;;;;20.55;14.50;;;;;;;;;;5040902;28;20198;-86
2022/01/12 03:24:10;;;;;;;16.88;13.88;;;;;;;;;;5074114;28;20048;-85
2022/01/12 03:26:37;;;;;;;22.35;14.00;;;;;;;;;;5057781;28;20041;-86
2022/01/12 03:29:09;;;;;;;17.52;13.52;;;;;;;;;;5057295;28;20066;-87
2022/01/12 03:31:36;;;;;;;17.17;13.68;;;;;;;;;;5056834;28;20127;-86
2022/01/12 03:39:07;;;;;;;18.60;15.48;;;;;;;;;;5075207;28;20040;-85
2022/01/12 03:41:37;;;;;;;22.35;15.02;;;;;;;;;;5089840;28;20135;-84
2022/01/12 03:44:07;;;;;;;20.13;15.55;;;;;;;;;;5041152;28;20400;-82
2022/01/12 03:46:39;;;;;;;22.63;17.38;;;;;;;;;;5057488;28;20053;-82
2022/01/12 03:49:07;;;;;;;18.05;15.43;;;;;;;;;;5073910;28;20048;-82
2022/01/12 03:51:35;;;;;;;20.35;14.32;;;;;;;;;;5056932;28;20087;-81
2022/01/12 03:54:03;;;;;;;17.85;14.13;;;;;;;;;;5056923;28;20047;-80
2022/01/12 03:56:30;;;;;;;21.50;14.98;;;;;;;;;;5056480;28;20052;-81
2022/01/12 03:58:58;;;;;;;18.35;13.73;;;;;;;;;;5040037;28;20083;-80
2022/01/12 04:01:25;;;;;;;18.95;13.38;;;;;;;;;;5037346;28;20052;-80
2022/01/12 04:04:04;;;;;;;22.30;13.57;;;;;;;;;;5054242;28;20044;-80
2022/01/12 04:09:38;;;;;;;17.95;13.88;;;;;;;;;;5045134;28;20041;-79
2022/01/12 04:12:06;;;;;;;18.55;13.25;;;;;;;;;;5043560;28;20036;-80
2022/01/12 04:14:33;;;;;;;21.42;12.93;;;;;;;;;;5044237;28;20576;-79
2022/01/12 04:17:00;;;;;;;22.30;13.52;;;;;;;;;;5043651;28;20048;-79
2022/01/12 04:19:29;;;;;;;19.67;13.43;;;;;;;;;;5044587;28;20048;-79
2022/01/12 04:22:06;;;;;;;16.27;12.90;;;;;;;;;;5060200;28;20036;-79
2022/01/12 04:24:35;;;;;;;15.10;12.73;;;;;;;;;;5045569;28;20094;-78
2022/01/12 04:27:02;;;;;;;16.88;14.02;;;;;;;;;;5043684;28;20055;-79
2022/01/12 04:29:29;;;;;;;17.75;13.25;;;;;;;;;;5044066;28;20056;-78
2022/01/12 04:31:56;;;;;;;17.00;14.10;;;;;;;;;;5076415;28;20065;-77
2022/01/12 04:34:23;;;;;;;25.25;13.93;;;;;;;;;;5051229;28;20141;-76
2022/01/12 04:36:50;;;;;;;15.05;12.77;;;;;;;;;;5065422;28;20053;-75
2022/01/12 04:39:17;;;;;;;19.88;13.05;;;;;;;;;;5031654;28;20131;-76
2022/01/12 04:41:44;;;;;;;17.35;12.80;;;;;;;;;;5046607;28;20047;-74
2022/01/12 04:44:12;;;;;;;16.23;13.52;;;;;;;;;;5033528;28;20052;-72
2022/01/12 04:46:52;;;;;;;13.30;10.98;;;;;;;;;;5033686;28;20064;-72
2022/01/12 04:49:36;;;;;;;16.23;11.85;;;;;;;;;;5051185;28;20887;-72
2022/01/12 04:52:04;;;;;;;;;;;;;;;;;;5057351;28;20068;-74
2022/01/12 04:54:31;;;;;;;14.63;11.10;;;;;;;;;;5048011;28;19920;-75
2022/01/12 04:56:59;;;;;;;16.90;12.13;;;;;;;;;;5037501;28;20056;-74
2022/01/12 04:59:27;;;;;;;16.50;11.68;;;;;;;;;;5039119;28;20052;-72
2022/01/12 05:01:59;;;;;;;21.38;12.80;;;;;;;;;;5050643;28;20053;-76
2022/01/12 05:07:31;;;;;;;19.55;13.63;;;;;;;;;;5051521;28;20055;-73
2022/01/12 05:12:48;;;;;;;22.92;13.60;;;;;;;;;;5028285;28;20049;-82
2022/01/12 05:12:54;;;;;;;16.35;14.13;;;;;;;;;;5027676;28;20060;-74
2022/01/12 05:15:31;;;;;;;17.33;12.45;;;;;;;;;;5017431;28;20099;-74
2022/01/12 05:17:58;;;;;;;17.33;13.23;;;;;;;;;;5039485;28;20554;-74
2022/01/12 05:20:25;;;;;;;18.33;13.38;;;;;;;;;;5054628;28;20474;-74
2022/01/12 05:22:52;;;;;;;20.70;14.15;;;;;;;;;;5037256;28;20056;-73
2022/01/12 05:25:22;;;;;;;19.13;12.60;;;;;;;;;;5087816;28;20086;-70
2022/01/12 05:27:50;;;;;;;16.50;12.52;;;;;;;;;;5061031;28;20200;-73
2022/01/12 05:30:17;;;;;;;17.60;14.40;;;;;;;;;;5021697;28;20053;-71
2022/01/12 05:32:46;;;;;;;18.30;13.30;;;;;;;;;;5037764;28;20099;-75
2022/01/12 05:35:17;;;;;;;16.15;13.40;;;;;;;;;;5038657;28;20052;-78
2022/01/12 05:37:45;;;;;;;16.98;12.57;;;;;;;;;;5054103;28;20049;-73
2022/01/12 05:40:14;;;;;;;15.90;13.27;;;;;;;;;;5051343;28;20048;-72
2022/01/12 05:42:43;;;;;;;22.70;13.73;;;;;;;;;;5039128;28;20044;-74
2022/01/12 05:45:11;;;;;;;16.95;13.13;;;;;;;;;;5053666;28;20063;-73
2022/01/12 05:49:34;;;;;;;17.55;14.80;;;;;;;;;;5037947;28;20058;-74
2022/01/12 05:50:30;;;;;;;21.40;12.73;;;;;;;;;;5055479;28;20094;-74
2022/01/12 05:53:08;;;;;;;22.25;13.38;;;;;;;;;;5019416;28;20139;-74
2022/01/12 05:55:35;;;;;;;24.98;16.77;;;;;;;;;;5035291;28;20196;-73
2022/01/12 05:58:02;;;;;;;17.65;13.35;;;;;;;;;;5034093;28;20094;-74
2022/01/12 06:00:31;;;;;;;21.40;12.90;;;;;;;;;;5053999;28;20515;-73
2022/01/12 06:03:00;;;;;;;18.13;13.23;;;;;;;;;;5071172;28;20462;-73
2022/01/12 06:05:28;;;;;;;20.55;12.57;;;;;;;;;;5037123;28;20144;-73
2022/01/12 06:07:57;;;;;;;20.10;14.90;;;;;;;;;;5036992;28;20058;-73
2022/01/12 06:10:24;;;;;;;16.38;12.60;;;;;;;;;;5053899;28;20098;-73
2022/01/12 06:12:53;;;;;;;17.95;14.80;;;;;;;;;;5086895;28;20052;-72
2022/01/12 06:15:22;;;;;;;20.42;14.90;;;;;;;;;;5042651;28;20447;-73
2022/01/12 06:17:50;;;;;;;22.40;15.25;;;;;;;;;;5053773;28;20445;-73
2022/01/12 06:20:17;;;;;;;20.55;15.10;;;;;;;;;;5071577;28;20043;-72
2022/01/12 06:23:03;;;;;;;22.38;15.40;;;;;;;;;;5071523;28;20070;-72
2022/01/12 06:25:31;;;;;;;25.17;16.70;;;;;;;;;;5045915;28;20508;-72
2022/01/12 06:28:20;;;;;;;22.90;15.82;;;;;;;;;;5036618;28;20041;-74
2022/01/12 06:33:31;;;;;;;20.02;15.10;;;;;;;;;;5056552;28;20147;-72
2022/01/12 06:35:58;;;;;;;33.05;19.05;;;;;;;;;;5036388;28;20079;-73
2022/01/12 06:38:26;;;;;;;21.98;16.58;;;;;;;;;;5071722;28;20049;-74
2022/01/12 06:40:53;;;;;;;21.17;14.70;;;;;;;;;;5053593;28;20527;-74
2022/01/12 06:43:21;;;;;;;20.75;13.45;;;;;;;;;;5047220;28;20036;-74
2022/01/12 06:45:48;;;;;;;16.90;13.23;;;;;;;;;;5050076;28;20115;-74
2022/01/12 06:48:15;;;;;;;18.70;13.20;;;;;;;;;;5034080;28;20102;-72
2022/01/12 06:50:42;;;;;;;21.65;14.93;;;;;;;;;;5032852;28;20033;-72
2022/01/12 06:53:09;;;;;;;22.17;16.85;;;;;;;;;;5036720;28;20459;-72
2022/01/12 06:55:37;;;;;;;21.88;14.98;;;;;;;;;;5053110;28;20037;-75
2022/01/12 06:58:05;;;;;;;21.85;15.43;;;;;;;;;;5036251;28;20132;-75
2022/01/12 07:00:32;;;;;;;30.50;22.75;;;;;;;;;;5050283;28;20048;-73
2022/01/12 07:03:01;;;;;;;21.35;15.77;;;;;;;;;;5052657;28;20412;-74
2022/01/12 07:05:36;;;;;;;22.48;16.27;;;;;;;;;;5038884;28;20060;-73
2022/01/12 07:08:03;;;;;;;20.98;14.52;;;;;;;;;;5047655;28;20048;-74
2022/01/12 07:10:36;;;;;;;16.88;14.45;;;;;;;;;;5019469;28;20524;-70
2022/01/12 07:13:13;;;;;;;17.35;13.52;;;;;;;;;;5052865;28;20075;-79
2022/01/12 07:15:42;;;;;;;22.48;14.32;;;;;;;;;;5053341;28;20229;-75
2022/01/12 07:18:11;;;;;;;24.25;14.90;;;;;;;;;;5037854;28;20057;-75
2022/01/12 07:20:38;;;;;;;19.20;13.68;;;;;;;;;;5038643;28;20051;-74
2022/01/12 07:23:05;;;;;;;17.58;13.93;;;;;;;;;;5072533;28;20060;-75
2022/01/12 07:25:32;;;;;;;15.85;13.23;;;;;;;;;;5072521;28;20040;-76
2022/01/12 07:27:59;;;;;;;20.33;14.13;;;;;;;;;;5054723;28;20127;-73
2022/01/12 07:30:26;;;;;;;24.70;15.25;;;;;;;;;;5056398;28;20053;-75
2022/01/12 07:32:54;;;;;;;23.00;15.85;;;;;;;;;;5074393;28;20049;-75
2022/01/12 07:35:21;;;;;;;22.25;15.90;;;;;;;;;;5056429;28;20072;-75
2022/01/12 07:37:48;;;;;;;21.25;14.18;;;;;;;;;;5056729;28;20059;-75
2022/01/12 07:40:15;;;;;;;19.30;14.90;;;;;;;;;;5074151;28;20059;-74
2022/01/12 07:42:43;;;;;;;19.52;15.82;;;;;;;;;;5040401;28;20080;-73
2022/01/12 07:45:13;;;;;;;25.42;15.32;;;;;;;;;;5073022;28;20048;-74
2022/01/12 07:47:40;;;;;;;19.70;15.35;;;;;;;;;;5056870;28;20488;-74
2022/01/12 07:50:08;;;;;;;56.53;32.60;;;;;;;;;;5056400;28;20044;-73
2022/01/12 07:52:35;;;;;;;113.35;60.72;;;;;;;;;;5073630;28;20143;-73
2022/01/12 07:55:04;;;;;;;92.45;47.40;;;;;;;;;;5056507;28;20393;-74
2022/01/12 07:57:31;;;;;;;64.05;31.15;;;;;;;;;;5055315;28;20471;-73
2022/01/12 07:59:58;;;;;;;66.68;34.00;;;;;;;;;;5074036;28;20041;-75
2022/01/12 08:02:25;;;;;;;50.00;23.35;;;;;;;;;;5055724;28;20044;-76
2022/01/12 08:04:52;;;;;;;22.77;18.15;;;;;;;;;;5074452;28;20493;-75
2022/01/12 08:07:19;;;;;;;26.10;16.00;;;;;;;;;;5056112;28;20572;-76
2022/01/12 08:09:46;;;;;;;20.95;16.63;;;;;;;;;;5073802;28;20507;-75
2022/01/12 08:12:14;;;;;;;24.33;16.10;;;;;;;;;;5074204;28;20040;-77
2022/01/12 08:14:40;;;;;;;22.27;15.82;;;;;;;;;;5055689;28;20405;-76
2022/01/12 08:17:07;;;;;;;19.60;16.15;;;;;;;;;;5056287;28;20539;-75
2022/01/12 08:19:36;;;;;;;19.23;16.20;;;;;;;;;;5073257;28;20136;-76
2022/01/12 08:22:04;;;;;;;32.42;17.45;;;;;;;;;;5056550;28;20051;-76
2022/01/12 08:24:31;;;;;;;27.80;18.48;;;;;;;;;;5073727;28;20140;-76
2022/01/12 08:27:07;;;;;;;22.90;16.02;;;;;;;;;;5073674;28;20066;-76
2022/01/12 08:29:34;;;;;;;25.58;14.40;;;;;;;;;;5055564;28;20543;-75
2022/01/12 08:32:01;;;;;;;20.27;14.10;;;;;;;;;;5072547;28;20049;-75
2022/01/12 08:34:28;;;;;;;15.50;13.40;;;;;;;;;;5073298;28;20053;-77
2022/01/12 08:36:56;;;;;;;21.00;14.20;;;;;;;;;;5072787;28;20570;-73
2022/01/12 08:39:23;;;;;;;25.75;15.82;;;;;;;;;;5055182;28;20050;-74
2022/01/12 08:41:50;;;;;;;28.13;17.13;;;;;;;;;;5055892;28;20048;-77
2022/01/12 08:44:32;;;;;;;19.40;14.20;;;;;;;;;;5057489;28;20060;-75
2022/01/12 08:46:59;;;;;;;21.92;14.52;;;;;;;;;;5055612;28;20504;-77
2022/01/12 08:49:26;;;;;;;24.58;15.20;;;;;;;;;;5055757;28;20049;-76
2022/01/12 08:51:53;;;;;;;21.90;14.32;;;;;;;;;;5044535;28;20048;-79
2022/01/12 08:54:21;;;;;;;16.10;11.77;;;;;;;;;;5048698;28;20056;-78
2022/01/12 08:56:48;;;;;;;16.73;12.82;;;;;;;;;;5045128;28;20547;-75
2022/01/12 08:59:17;;;;;;;22.98;14.65;;;;;;;;;;5054708;28;20510;-75
2022/01/12 09:01:44;;;;;;;17.05;13.93;;;;;;;;;;5073129;28;20114;-76
2022/01/12 09:04:12;;;;;;;19.02;15.10;;;;;;;;;;5055647;28;20052;-75
2022/01/12 09:06:39;;;;;;;20.20;12.90;;;;;;;;;;5054859;28;20051;-77
2022/01/12 09:09:05;;;;;;;17.40;13.32;;;;;;;;;;5054813;28;20577;-77
2022/01/12 09:11:32;;;;;;;21.38;14.60;;;;;;;;;;5054835;28;20052;-75
2022/01/12 09:14:00;;;;;;;17.85;11.38;;;;;;;;;;5054837;28;20059;-77
2022/01/12 09:16:27;;;;;;;17.13;12.85;;;;;;;;;;5054585;28;20086;-78
2022/01/12 09:18:54;;;;;;;15.02;11.60;;;;;;;;;;5073191;28;20044;-81
2022/01/12 09:21:22;;;;;;;21.13;13.07;;;;;;;;;;5038506;28;20061;-75
2022/01/12 09:23:49;;;;;;;17.50;12.00;;;;;;;;;;5019651;28;20067;-75
2022/01/12 09:26:16;;;;;;;16.70;13.05;;;;;;;;;;5053588;28;20071;-75
2022/01/12 09:28:45;;;;;;;15.73;10.15;;;;;;;;;;5019573;28;20395;-80
2022/01/12 09:31:12;;;;;;;24.75;15.93;;;;;;;;;;5040880;28;20119;-80
2022/01/12 09:33:40;;;;;;;18.92;11.95;;;;;;;;;;5050890;28;20040;-79
2022/01/12 09:36:07;;;;;;;19.02;14.48;;;;;;;;;;5047026;28;20473;-79
2022/01/12 09:38:35;;;;;;;20.65;14.65;;;;;;;;;;5050711;28;20413;-80
2022/01/12 09:41:04;;;;;;;15.63;12.02;;;;;;;;;;5053474;28;20045;-81
2022/01/12 09:43:34;;;;;;;16.27;10.55;;;;;;;;;;5053520;28;20045;-81
2022/01/12 09:46:02;;;;;;;18.00;10.48;;;;;;;;;;5052626;28;20512;-81
2022/01/12 09:48:34;;;;;;;15.85;10.90;;;;;;;;;;5034899;28;20127;-77
2022/01/12 09:51:04;;;;;;;21.45;10.48;;;;;;;;;;5035311;28;20068;-79
2022/01/12 09:53:32;;;;;;;16.55;11.15;;;;;;;;;;5018559;28;20122;-75
2022/01/12 09:56:00;;;;;;;14.10;10.75;;;;;;;;;;5017403;28;20476;-76
2022/01/12 09:58:32;;;;;;;17.15;11.48;;;;;;;;;;5017984;28;20163;-76
2022/01/12 10:01:01;;;;;;;18.88;11.02;;;;;;;;;;5051564;28;20132;-76
2022/01/12 10:03:31;;;;;;;18.08;13.48;;;;;;;;;;5030533;28;20060;-76
2022/01/12 10:05:58;;;;;;;18.77;11.63;;;;;;;;;;5052031;28;20044;-83
2022/01/12 10:08:26;;;;;;;19.08;12.68;;;;;;;;;;5035063;28;20092;-81
2022/01/12 10:11:05;;;;;;;17.15;10.80;;;;;;;;;;5034851;28;20134;-83
2022/01/12 10:13:45;;;;;;;18.58;10.30;;;;;;;;;;5019037;28;20049;-81
2022/01/12 10:16:20;;;;;;;14.77;10.20;;;;;;;;;;5052270;28;20045;-82
2022/01/12 10:18:50;;;;;;;16.50;10.80;;;;;;;;;;5051019;28;20049;-82
2022/01/12 10:21:37;;;;;;;15.27;10.40;;;;;;;;;;5023488;28;20044;-85
2022/01/12 10:24:10;;;;;;;19.73;12.85;;;;;;;;;;5055618;28;20074;-82
2022/01/12 10:26:39;;;;;;;17.23;11.82;;;;;;;;;;5053992;28;20048;-81
2022/01/12 10:29:19;;;;;;;20.52;11.68;;;;;;;;;;5037754;28;20071;-81
2022/01/12 10:31:54;;;;;;;17.85;11.23;;;;;;;;;;5053655;28;20067;-82
2022/01/12 10:34:24;;;;;;;18.35;12.23;;;;;;;;;;5055197;28;20245;-81
2022/01/12 10:36:53;;;;;;;18.60;11.57;;;;;;;;;;5070022;28;20052;-82
2022/01/12 10:39:22;;;;;;;19.45;11.40;;;;;;;;;;5065793;28;20055;-83
2022/01/12 10:42:04;;;;;;;16.77;12.52;;;;;;;;;;5034148;28;20085;-82
2022/01/12 10:44:33;;;;;;;19.48;11.50;;;;;;;;;;5034791;28;20057;-82
2022/01/12 10:47:11;;;;;;;20.60;12.85;;;;;;;;;;5034981;28;20475;-82
2022/01/12 10:49:42;;;;;;;17.33;11.75;;;;;;;;;;5035117;28;20136;-81
2022/01/12 10:52:12;;;;;;;22.88;11.50;;;;;;;;;;5036675;28;20415;-82
2022/01/12 10:54:51;;;;;;;17.92;11.30;;;;;;;;;;5038107;28;20049;-84
2022/01/12 10:57:28;;;;;;;19.95;14.00;;;;;;;;;;5055253;28;20049;-84
2022/01/12 11:00:21;;;;;;;22.40;13.63;;;;;;;;;;5037671;28;20501;-84
2022/01/12 11:02:56;;;;;;;18.88;12.25;;;;;;;;;;5039148;28;20179;-85
2022/01/12 11:05:26;;;;;;;15.80;11.70;;;;;;;;;;5055762;28;20053;-85
2022/01/12 11:07:53;;;;;;;22.38;14.95;;;;;;;;;;5038146;28;20041;-84
2022/01/12 11:10:21;;;;;;;18.55;13.55;;;;;;;;;;5038567;28;20045;-84
2022/01/12 11:12:50;;;;;;;20.08;12.93;;;;;;;;;;5022549;28;20512;-84
2022/01/12 11:15:19;;;;;;;21.38;14.65;;;;;;;;;;5022050;28;20073;-85
2022/01/12 11:17:50;;;;;;;20.65;13.68;;;;;;;;;;5037800;28;20106;-85
2022/01/12 11:20:25;;;;;;;21.20;13.85;;;;;;;;;;5052704;28;20044;-84
2022/01/12 11:23:08;;;;;;;20.40;13.73;;;;;;;;;;5073987;28;20062;-85
2022/01/12 11:25:49;;;;;;;25.50;14.60;;;;;;;;;;5057679;28;20108;-82
2022/01/12 11:28:20;;;;;;;22.15;14.07;;;;;;;;;;5057408;28;20049;-82
2022/01/12 11:30:50;;;;;;;21.10;13.98;;;;;;;;;;5065276;28;20257;-86
2022/01/12 11:33:20;;;;;;;20.40;14.32;;;;;;;;;;5074764;28;20092;-86
2022/01/12 11:35:50;;;;;;;20.35;14.88;;;;;;;;;;5074144;28;20071;-86
2022/01/12 11:38:33;;;;;;;18.80;13.60;;;;;;;;;;5053912;28;20064;-86
2022/01/12 11:41:20;;;;;;;16.17;12.77;;;;;;;;;;5039694;28;20044;-86
2022/01/12 11:44:07;;;;;;;20.13;12.60;;;;;;;;;;5060907;28;20049;-86
2022/01/12 11:46:45;;;;;;;16.50;13.10;;;;;;;;;;5054927;28;20060;-86
2022/01/12 11:49:31;;;;;;;18.92;14.10;;;;;;;;;;5054643;28;20387;-87
2022/01/12 11:52:03;;;;;;;19.05;11.73;;;;;;;;;;5069434;28;20048;-87
2022/01/12 11:54:37;;;;;;;17.63;12.75;;;;;;;;;;5073584;28;20036;-87
2022/01/12 11:57:07;;;;;;;18.73;13.55;;;;;;;;;;5074690;28;20381;-87
2022/01/12 11:59:52;;;;;;;21.67;12.63;;;;;;;;;;5057146;28;20125;-88
2022/01/12 12:02:21;;;;;;;20.60;13.13;;;;;;;;;;5068585;28;20060;-87
2022/01/12 12:05:00;;;;;;;17.70;12.77;;;;;;;;;;5039650;28;20037;-87
2022/01/12 12:07:27;;;;;;;19.92;12.02;;;;;;;;;;5057097;28;20068;-86
2022/01/12 12:09:58;;;;;;;17.80;12.48;;;;;;;;;;5075060;28;20055;-87
2022/01/12 12:12:32;;;;;;;15.75;11.77;;;;;;;;;;5056748;28;20493;-87
2022/01/12 12:15:01;;;;;;;16.35;12.23;;;;;;;;;;5073319;28;20049;-86
2022/01/12 12:17:30;;;;;;;20.23;11.52;;;;;;;;;;5045052;28;20049;-87
2022/01/12 12:19:58;;;;;;;18.20;12.43;;;;;;;;;;5074525;28;20056;-86
2022/01/12 12:22:30;;;;;;;20.10;12.43;;;;;;;;;;5053181;28;20041;-85
2022/01/12 12:25:08;;;;;;;12.98;10.77;;;;;;;;;;5071978;28;20439;-84
2022/01/12 12:27:37;;;;;;;16.60;10.48;;;;;;;;;;5074039;28;20129;-86
2022/01/12 12:30:07;;;;;;;9.38;6.35;;;;;;;;;;5056575;28;20090;-87
2022/01/12 12:32:44;;;;;;;10.73;6.10;;;;;;;;;;5089446;28;20135;-86
2022/01/12 12:35:17;;;;;;;8.68;6.18;;;;;;;;;;5072439;28;20492;-87
2022/01/12 12:37:51;;;;;;;7.63;4.85;;;;;;;;;;5089852;28;20127;-86
2022/01/12 12:40:28;;;;;;;8.25;5.60;;;;;;;;;;5055929;28;20079;-87
2022/01/12 12:43:14;;;;;;;8.23;5.40;;;;;;;;;;5057805;28;20056;-86
2022/01/12 12:45:52;;;;;;;8.88;6.25;;;;;;;;;;5073591;28;20160;-86
2022/01/12 12:48:21;;;;;;;9.65;6.15;;;;;;;;;;5056367;28;20577;-87
2022/01/12 12:51:01;;;;;;;10.00;7.63;;;;;;;;;;5055404;28;20425;-87
2022/01/12 12:53:30;;;;;;;11.43;7.13;;;;;;;;;;5056023;28;20048;-87
2022/01/12 12:55:57;;;;;;;18.02;12.32;;;;;;;;;;5055592;28;20060;-86
2022/01/12 12:58:30;;;;;;;12.00;7.18;;;;;;;;;;5072588;28;20451;-90
2022/01/12 13:01:06;;;;;;;10.63;6.45;;;;;;;;;;5072845;28;20468;-90
2022/01/12 13:03:35;;;;;;;13.52;7.13;;;;;;;;;;5053393;28;20717;-89
2022/01/12 13:06:03;;;;;;;9.48;5.78;;;;;;;;;;5036771;28;20127;-88
2022/01/12 13:08:29;;;;;;;9.65;5.88;;;;;;;;;;5020513;28;20059;-90
2022/01/12 13:11:04;;;;;;;11.98;6.07;;;;;;;;;;5057545;28;20053;-90
2022/01/12 13:13:31;;;;;;;11.30;6.45;;;;;;;;;;5035700;28;20080;-89
2022/01/12 13:15:58;;;;;;;11.73;5.93;;;;;;;;;;5019493;28;20159;-89
2022/01/12 13:18:26;;;;;;;12.93;6.75;;;;;;;;;;5019683;28;20052;-89
2022/01/12 13:21:07;;;;;;;8.02;5.45;;;;;;;;;;5053256;28;20076;-89
2022/01/12 13:23:45;;;;;;;10.18;5.70;;;;;;;;;;5038055;28;20440;-90
2022/01/12 13:26:15;;;;;;;8.60;5.65;;;;;;;;;;5035455;28;20052;-90
2022/01/12 13:28:46;;;;;;;12.90;5.88;;;;;;;;;;5053573;28;20052;-90
2022/01/12 13:31:16;;;;;;;11.35;6.38;;;;;;;;;;5037218;28;20048;-88
2022/01/12 13:33:48;;;;;;;7.43;5.35;;;;;;;;;;5036225;28;20053;-90
2022/01/12 13:36:28;;;;;;;6.88;5.47;;;;;;;;;;5035932;28;20052;-89
2022/01/12 13:39:07;;;;;;;11.30;5.18;;;;;;;;;;5020021;28;20056;-87
2022/01/12 13:41:36;;;;;;;9.50;6.65;;;;;;;;;;5055013;28;20048;-89
2022/01/12 13:44:21;;;;;;;10.05;6.68;;;;;;;;;;5088433;28;20045;-88
2022/01/12 13:47:20;;;;;;;9.82;5.78;;;;;;;;;;5069766;28;20040;-88
2022/01/12 13:49:47;;;;;;;7.28;5.35;;;;;;;;;;5086126;28;20098;-89
2022/01/12 13:52:15;;;;;;;8.38;5.88;;;;;;;;;;5055369;28;20041;-88
2022/01/12 13:54:43;;;;;;;7.50;6.03;;;;;;;;;;5049353;28;20469;-88
2022/01/12 13:57:13;;;;;;;9.82;6.05;;;;;;;;;;5055145;28;20071;-87
2022/01/12 13:59:51;;;;;;;8.05;5.38;;;;;;;;;;5054645;28;20060;-87
2022/01/12 14:02:24;;;;;;;8.27;6.18;;;;;;;;;;5055173;28;20109;-77
2022/01/12 14:05:05;;;;;;;11.27;6.70;;;;;;;;;;5062458;28;20118;-83
2022/01/12 14:07:36;;;;;;;9.35;6.45;;;;;;;;;;5077042;28;20049;-76
2022/01/12 14:10:05;;;;;;;9.05;5.43;;;;;;;;;;5096696;28;20457;-75
2022/01/12 14:12:33;;;;;;;10.13;6.97;;;;;;;;;;5091696;28;20087;-75
2022/01/12 14:15:04;;;;;;;9.65;5.47;;;;;;;;;;5091598;28;20048;-75
2022/01/12 14:17:39;;;;;;;9.32;6.07;;;;;;;;;;5073319;28;20044;-75
2022/01/12 14:20:20;;;;;;;7.00;5.53;;;;;;;;;;5059472;28;20045;-75
2022/01/12 14:23:00;;;;;;;7.90;6.07;;;;;;;;;;5055161;28;20121;-80
2022/01/12 14:25:39;;;;;;;8.05;6.75;;;;;;;;;;5069105;28;20093;-82
2022/01/12 14:28:07;;;;;;;12.27;6.20;;;;;;;;;;5098735;28;20078;-82
2022/01/12 14:30:35;;;;;;;9.10;6.10;;;;;;;;;;5063330;28;20052;-81
2022/01/12 14:33:03;;;;;;;8.52;5.25;;;;;;;;;;5080657;28;20135;-82
2022/01/12 14:35:30;;;;;;;54.65;35.78;;;;;;;;;;5081778;28;20044;-81
2022/01/12 14:37:57;;;;;;;11.43;7.78;;;;;;;;;;5064684;28;20079;-78
2022/01/12 14:40:24;;;;;;;12.80;6.20;;;;;;;;;;5080564;28;20062;-78
2022/01/12 14:42:54;;;;;;;11.98;6.47;;;;;;;;;;5080595;28;20051;-81
2022/01/12 14:45:27;;;;;;;8.05;5.88;;;;;;;;;;5082013;28;20040;-81
2022/01/12 14:47:56;;;;;;;17.67;5.90;;;;;;;;;;5081593;28;20051;-80
2022/01/12 14:50:25;;;;;;;10.38;6.30;;;;;;;;;;5080892;28;20083;-80
2022/01/12 14:52:53;;;;;;;14.45;6.82;;;;;;;;;;5080996;28;20055;-84
2022/01/12 14:55:40;;;;;;;12.25;6.80;;;;;;;;;;5083803;28;20055;-79
2022/01/12 14:58:07;;;;;;;11.63;7.43;;;;;;;;;;5080535;28;20040;-79
2022/01/12 15:00:37;;;;;;;13.80;9.10;;;;;;;;;;5099053;28;20040;-79
2022/01/12 15:03:06;;;;;;;12.95;7.47;;;;;;;;;;5080684;28;20507;-78
2022/01/12 15:05:35;;;;;;;13.20;6.00;;;;;;;;;;5081197;28;20044;-79
2022/01/12 15:08:02;;;;;;;10.90;6.72;;;;;;;;;;5080950;28;20056;-79
2022/01/12 15:10:30;;;;;;;14.52;7.82;;;;;;;;;;5080978;28;20088;-78
2022/01/12 15:13:05;;;;;;;11.13;6.47;;;;;;;;;;5080759;28;20056;-79
2022/01/12 15:15:32;;;;;;;17.25;7.72;;;;;;;;;;5081999;28;20109;-79
2022/01/12 15:17:59;;;;;;;10.60;6.78;;;;;;;;;;5064543;28;20064;-79
2022/01/12 15:20:28;;;;;;;15.40;6.72;;;;;;;;;;5080380;28;20130;-78
2022/01/12 15:22:55;;;;;;;8.30;6.43;;;;;;;;;;5069742;28;20056;-79
2022/01/12 15:25:24;;;;;;;9.30;6.30;;;;;;;;;;5069320;28;20047;-78
2022/01/12 15:27:52;;;;;;;13.50;6.65;;;;;;;;;;5080549;28;20040;-78
2022/01/12 15:30:20;;;;;;;13.68;11.98;;;;;;;;;;5080187;28;20058;-79
2022/01/12 15:32:48;;;;;;;14.80;10.38;;;;;;;;;;5068149;28;20424;-81
2022/01/12 15:35:16;;;;;;;12.80;8.45;;;;;;;;;;5044076;28;20051;-78
2022/01/12 15:37:45;;;;;;;16.95;10.27;;;;;;;;;;5041068;28;20049;-78
2022/01/12 15:40:12;;;;;;;11.52;7.63;;;;;;;;;;5057078;28;20054;-79
2022/01/12 15:42:39;;;;;;;19.27;10.25;;;;;;;;;;5056724;28;20048;-79
2022/01/12 15:45:07;;;;;;;15.20;8.23;;;;;;;;;;5057437;28;20049;-80
2022/01/12 15:47:34;;;;;;;14.05;8.73;;;;;;;;;;5056993;28;20064;-81
2022/01/12 15:50:03;;;;;;;25.52;9.80;;;;;;;;;;5074589;28;20135;-82
2022/01/12 15:52:30;;;;;;;16.88;10.48;;;;;;;;;;5022937;28;20136;-80
2022/01/12 15:54:57;;;;;;;17.77;9.13;;;;;;;;;;5040665;28;20051;-80